Time;durP1;ratioP1;P1;durP2;ratioP2;P2;SDS_P1;SDS_P2;PMS_P1;PMS_P2;Temp;Humidity;BMP_temperature;BMP_pressure;BME280_temperature;BME280_humidity;BME280_pressure;Samples;Min_cycle;Max_cycle;Signal;HPM_P1;HPM_P2
2023/07/17 00:00:36;;;;;;;4.83;2.50;;;;;;;16.47;96.68;98907.63;4954790;28;20220;-62
2023/07/17 00:03:05;;;;;;;6.50;2.67;;;;;;;16.43;97.52;98898.47;4956672;28;20241;-63
2023/07/17 00:05:31;;;;;;;6.60;2.40;;;;;;;16.46;96.97;98898.91;4954736;28;20223;-62
2023/07/17 00:08:02;;;;;;;7.00;2.90;;;;;;;16.53;96.06;98901.66;4943364;28;20282;-65
2023/07/17 00:10:28;;;;;;;4.53;2.33;;;;;;;16.51;96.50;98890.47;4963045;28;20229;-65
2023/07/17 00:13:00;;;;;;;6.27;2.83;;;;;;;16.51;96.76;98895.75;4966167;28;20231;-65
2023/07/17 00:15:27;;;;;;;6.27;2.63;;;;;;;16.48;96.90;98891.63;4963121;28;20628;-65
2023/07/17 00:17:53;;;;;;;8.00;3.20;;;;;;;16.44;98.20;98895.63;4965404;28;20667;-65
2023/07/17 00:20:20;;;;;;;5.23;3.20;;;;;;;16.43;97.50;98901.91;4967587;28;20306;-65
2023/07/17 00:22:47;;;;;;;4.40;2.57;;;;;;;16.43;96.91;98898.47;4965388;28;20234;-65
2023/07/17 00:25:13;;;;;;;6.27;2.57;;;;;;;16.46;95.34;98893.63;4967552;28;20240;-66
2023/07/17 00:27:40;;;;;;;5.77;2.50;;;;;;;16.57;93.99;98910.00;4964717;28;20801;-66
2023/07/17 00:30:09;;;;;;;7.23;2.80;;;;;;;16.59;93.87;98900.91;4967030;28;20224;-66
2023/07/17 00:32:36;;;;;;;5.03;2.77;;;;;;;16.59;95.93;98902.72;4947635;28;20627;-66
2023/07/17 00:35:02;;;;;;;5.27;2.90;;;;;;;16.53;95.93;98902.44;4965892;28;20747;-66
2023/07/17 00:37:30;;;;;;;4.90;2.83;;;;;;;16.49;95.61;98893.28;4946923;28;20947;-66
2023/07/17 00:39:57;;;;;;;8.13;3.33;;;;;;;16.46;95.70;98891.00;4966273;28;20251;-66
2023/07/17 00:42:23;;;;;;;6.57;2.60;;;;;;;16.48;96.70;98886.38;4964591;28;20300;-66
2023/07/17 00:44:50;;;;;;;7.07;2.80;;;;;;;16.43;95.57;98893.19;4965268;28;20727;-67
2023/07/17 00:47:18;;;;;;;5.40;2.60;;;;;;;16.42;96.10;98895.03;4958706;28;20230;-66
2023/07/17 00:49:47;;;;;;;8.93;2.57;;;;;;;16.41;95.99;98897.81;4962864;28;20232;-66
2023/07/17 00:52:14;;;;;;;8.17;3.10;;;;;;;16.38;95.69;98894.56;4964653;28;20235;-67
2023/07/17 00:54:42;;;;;;;7.97;2.53;;;;;;;16.45;96.84;98893.84;4946775;28;20246;-67
2023/07/17 00:57:12;;;;;;;7.30;2.80;;;;;;;16.44;96.08;98900.09;4966670;28;20220;-67
2023/07/17 00:59:39;;;;;;;9.40;2.80;;;;;;;16.41;95.66;98890.75;4946342;28;20224;-67
2023/07/17 01:02:08;;;;;;;8.77;2.67;;;;;;;16.41;97.05;98896.03;4948546;28;20234;-67
2023/07/17 01:04:36;;;;;;;5.63;3.03;;;;;;;16.44;95.87;98894.84;4939714;28;20234;-67
2023/07/17 01:07:03;;;;;;;11.50;3.20;;;;;;;16.49;92.83;98898.53;4965704;28;20571;-66
2023/07/17 01:09:30;;;;;;;9.67;3.30;;;;;;;16.46;93.21;98898.09;4963323;28;20600;-67
2023/07/17 01:11:56;;;;;;;6.20;2.80;;;;;;;16.46;94.64;98904.19;4966418;28;20230;-67
2023/07/17 01:14:23;;;;;;;7.93;2.83;;;;;;;16.47;94.65;98911.09;4961450;28;20255;-67
2023/07/17 01:16:50;;;;;;;8.90;2.83;;;;;;;16.45;96.14;98902.53;4963609;28;20335;-67
2023/07/17 01:19:17;;;;;;;6.50;3.13;;;;;;;16.52;94.71;98903.44;4965899;28;20282;-67
2023/07/17 01:21:51;;;;;;;8.73;3.10;;;;;;;16.49;96.19;98905.66;4961788;28;20235;-66
2023/07/17 01:24:19;;;;;;;5.83;2.93;;;;;;;16.53;94.94;98899.00;4963566;28;20228;-66
2023/07/17 01:26:46;;;;;;;8.00;3.17;;;;;;;16.56;93.54;98903.91;4960301;28;20571;-67
2023/07/17 01:29:12;;;;;;;5.93;2.73;;;;;;;16.55;93.64;98902.28;4965002;28;20233;-67
2023/07/17 01:31:39;;;;;;;5.33;2.73;;;;;;;16.53;93.15;98897.19;4943748;28;20243;-67
2023/07/17 01:34:07;;;;;;;6.57;3.00;;;;;;;16.54;93.10;98890.09;4964260;28;20291;-67
2023/07/17 01:36:33;;;;;;;6.40;3.27;;;;;;;16.55;93.24;98901.44;4946249;28;20231;-67
2023/07/17 01:39:00;;;;;;;7.57;2.63;;;;;;;16.52;93.58;98894.75;4964544;28;20240;-67
2023/07/17 01:41:28;;;;;;;4.30;2.90;;;;;;;16.47;93.84;98900.53;4963301;28;20323;-67
2023/07/17 01:43:57;;;;;;;9.07;3.00;;;;;;;16.46;96.21;98893.63;4966312;28;20226;-67
2023/07/17 01:46:24;;;;;;;6.40;2.97;;;;;;;16.41;96.20;98889.94;4962183;28;20867;-67
2023/07/17 01:48:50;;;;;;;6.70;3.60;;;;;;;16.36;96.09;98899.19;4948995;28;20235;-67
2023/07/17 01:51:17;;;;;;;9.33;3.37;;;;;;;16.33;96.36;98907.47;4965022;28;20233;-66
2023/07/17 01:53:43;;;;;;;10.23;3.67;;;;;;;16.34;95.82;98911.72;4961784;28;20243;-66
2023/07/17 01:56:10;;;;;;;9.07;3.33;;;;;;;16.27;95.81;98916.06;4948629;28;20310;-66
2023/07/17 01:58:38;;;;;;;6.90;3.17;;;;;;;16.33;96.26;98917.19;4945912;28;20234;-66
2023/07/17 02:01:05;;;;;;;6.17;2.93;;;;;;;16.20;96.54;98910.72;4966446;28;20238;-66
2023/07/17 02:03:32;;;;;;;7.83;3.20;;;;;;;16.28;96.74;98909.81;4961578;28;20229;-66
2023/07/17 02:06:01;;;;;;;5.80;2.93;;;;;;;16.24;97.70;98916.44;4948848;28;20580;-66
2023/07/17 02:08:28;;;;;;;8.93;3.50;;;;;;;16.11;98.36;98914.44;4945860;28;20231;-66
2023/07/17 02:10:55;;;;;;;8.33;3.43;;;;;;;16.06;97.96;98909.69;4963918;28;20322;-66
2023/07/17 02:13:22;;;;;;;8.33;3.40;;;;;;;15.98;98.84;98917.66;4963118;28;20255;-66
2023/07/17 02:15:50;;;;;;;6.37;3.07;;;;;;;15.94;98.60;98911.13;4963876;28;20238;-66
2023/07/17 02:18:16;;;;;;;5.07;3.50;;;;;;;15.90;99.14;98907.25;4947714;28;20238;-66
2023/07/17 02:20:44;;;;;;;10.03;3.13;;;;;;;15.84;100.00;98908.72;4962304;28;20254;-66
2023/07/17 02:23:11;;;;;;;10.97;3.50;;;;;;;15.81;99.63;98914.34;4964169;28;20256;-66
2023/07/17 02:25:38;;;;;;;8.50;3.90;;;;;;;15.82;98.92;98915.97;4961170;28;20218;-66
2023/07/17 02:28:04;;;;;;;10.90;3.40;;;;;;;15.82;99.24;98918.63;4963673;28;20235;-66
2023/07/17 02:30:31;;;;;;;11.53;3.37;;;;;;;15.78;98.83;98912.06;4943959;28;20246;-66
2023/07/17 02:33:03;;;;;;;9.50;3.80;;;;;;;15.76;99.15;98914.88;4963916;28;20230;-66
2023/07/17 02:35:30;;;;;;;5.17;3.23;;;;;;;15.78;99.96;98920.78;4936373;28;20285;-66
2023/07/17 02:38:02;;;;;;;8.70;3.40;;;;;;;15.72;99.55;98920.66;4965778;28;20258;-66
2023/07/17 02:40:28;;;;;;;6.03;3.20;;;;;;;15.72;99.33;98921.50;4945108;28;20560;-66
2023/07/17 02:42:55;;;;;;;8.00;3.10;;;;;;;15.72;99.62;98923.31;4965662;28;20334;-66
2023/07/17 02:45:21;;;;;;;10.93;3.70;;;;;;;15.71;100.00;98921.66;4964627;28;20227;-66
2023/07/17 02:47:48;;;;;;;14.00;3.77;;;;;;;15.68;100.00;98922.00;4946502;28;20234;-66
2023/07/17 02:50:16;;;;;;;7.73;3.43;;;;;;;15.68;99.75;98924.66;4964005;28;20242;-66
2023/07/17 02:52:43;;;;;;;5.37;3.30;;;;;;;15.69;99.22;98921.84;4962450;28;20246;-66
2023/07/17 02:55:10;;;;;;;8.73;3.67;;;;;;;15.61;99.75;98922.72;4948171;28;20230;-66
2023/07/17 02:57:37;;;;;;;9.53;3.47;;;;;;;15.57;100.00;98916.16;4937713;28;20726;-66
2023/07/17 03:00:08;;;;;;;6.97;4.20;;;;;;;15.61;100.00;98920.09;4964173;28;20229;-66
2023/07/17 03:05:17;;;;;;;6.57;3.20;;;;;;;15.68;100.00;98922.00;4927446;23;20228;-67
2023/07/17 03:07:46;;;;;;;7.43;3.67;;;;;;;15.58;100.00;98927.53;4922674;29;20238;-66
2023/07/17 03:10:13;;;;;;;7.27;3.70;;;;;;;15.56;100.00;98921.63;4941034;29;20235;-66
2023/07/17 03:12:40;;;;;;;7.37;3.60;;;;;;;15.47;100.00;98926.09;4922451;28;20873;-66
2023/07/17 03:15:08;;;;;;;6.07;3.60;;;;;;;15.49;99.93;98929.38;4944758;28;20231;-66
2023/07/17 03:17:35;;;;;;;8.70;3.80;;;;;;;15.51;100.00;98924.75;4940824;28;20670;-66
2023/07/17 03:20:08;;;;;;;8.23;4.07;;;;;;;15.50;100.00;98933.66;4928855;29;20308;-66
2023/07/17 03:22:37;;;;;;;8.53;3.53;;;;;;;15.47;100.00;98923.47;4925964;29;20805;-66
2023/07/17 03:25:05;;;;;;;7.90;3.50;;;;;;;15.49;100.00;98943.38;4925469;29;20643;-66
2023/07/17 03:27:31;;;;;;;12.10;3.97;;;;;;;15.54;100.00;98931.50;4938723;28;20238;-66
2023/07/17 03:29:58;;;;;;;11.03;3.57;;;;;;;15.59;99.92;98942.31;4942240;28;20231;-66
2023/07/17 03:32:25;;;;;;;11.13;3.90;;;;;;;15.62;99.50;98942.78;5137182;23;20229;-66
2023/07/17 03:34:52;;;;;;;8.43;3.50;;;;;;;15.69;98.66;98939.44;4973531;28;20255;-66
2023/07/17 03:37:18;;;;;;;8.83;3.50;;;;;;;15.72;98.86;98945.19;4972660;28;20242;-66
2023/07/17 03:39:46;;;;;;;4.97;3.30;;;;;;;15.73;98.71;98948.63;4973379;28;20235;-66
2023/07/17 03:42:14;;;;;;;8.23;3.67;;;;;;;15.76;98.17;98945.63;4959528;28;20241;-66
2023/07/17 03:44:41;;;;;;;6.37;3.53;;;;;;;15.75;98.04;98949.25;4957297;28;20236;-66
2023/07/17 03:47:08;;;;;;;7.83;3.80;;;;;;;15.78;96.93;98951.53;4960062;28;20222;-66
2023/07/17 03:49:36;;;;;;;8.57;3.60;;;;;;;15.77;97.35;98953.38;4973999;28;20583;-66
2023/07/17 03:52:03;;;;;;;13.50;3.80;;;;;;;15.79;98.71;98956.66;4961362;28;20776;-66
2023/07/17 03:54:30;;;;;;;9.37;3.70;;;;;;;15.82;97.23;98954.66;4972558;28;20234;-66
2023/07/17 03:56:59;;;;;;;7.87;3.60;;;;;;;15.90;96.87;98960.69;4977998;28;20605;-66
2023/07/17 03:59:25;;;;;;;8.50;3.80;;;;;;;16.01;96.22;98962.06;4956014;28;20230;-66
2023/07/17 04:01:53;;;;;;;9.17;3.93;;;;;;;16.07;96.70;98955.28;4962707;28;20252;-66
2023/07/17 04:04:20;;;;;;;10.07;3.40;;;;;;;16.06;96.19;98958.91;4960922;28;20740;-66
2023/07/17 04:06:47;;;;;;;5.67;3.67;;;;;;;16.08;96.23;98968.25;4954940;28;21302;-66
2023/07/17 04:09:15;;;;;;;7.00;3.40;;;;;;;16.19;94.86;98953.03;4960552;28;20305;-66
2023/07/17 04:11:45;;;;;;;7.37;3.70;;;;;;;16.25;93.84;98965.50;4956416;28;20322;-66
2023/07/17 04:14:15;;;;;;;7.97;3.40;;;;;;;16.23;93.96;98967.47;4958390;28;20282;-66
2023/07/17 04:16:42;;;;;;;8.83;4.17;;;;;;;16.28;94.30;98969.59;4967679;28;20240;-66
2023/07/17 04:19:10;;;;;;;7.90;3.90;;;;;;;16.44;91.47;98968.59;4973186;28;20227;-66
2023/07/17 04:21:36;;;;;;;7.47;3.43;;;;;;;16.60;88.09;98963.16;4973248;28;20258;-66
2023/07/17 04:24:03;;;;;;;8.40;3.77;;;;;;;16.72;88.70;98975.88;4977229;28;20761;-66
2023/07/17 04:26:40;;;;;;;6.73;3.30;;;;;;;16.68;89.19;98970.16;4972085;28;20230;-66
2023/07/17 04:29:10;;;;;;;9.53;3.53;;;;;;;16.65;89.50;98963.44;4960323;28;20258;-66
2023/07/17 04:31:38;;;;;;;9.17;3.40;;;;;;;16.70;89.50;98970.78;4971472;28;20267;-66
2023/07/17 04:34:05;;;;;;;10.17;3.87;;;;;;;16.67;90.06;98979.88;4959198;28;20322;-66
2023/07/17 04:36:32;;;;;;;11.30;3.53;;;;;;;16.67;89.46;98969.34;4956024;28;20243;-66
2023/07/17 04:38:59;;;;;;;7.73;3.40;;;;;;;16.68;89.72;98978.06;4963885;28;20226;-66
2023/07/17 04:41:25;;;;;;;9.83;3.60;;;;;;;16.78;88.28;98981.25;4972338;28;20228;-66
2023/07/17 04:43:52;;;;;;;5.80;3.43;;;;;;;16.90;88.63;98976.34;4972564;28;20236;-66
2023/07/17 04:46:19;;;;;;;6.60;3.40;;;;;;;16.92;87.99;98973.50;4958088;28;20231;-66
2023/07/17 04:48:47;;;;;;;8.07;3.80;;;;;;;16.95;87.79;98983.69;4970545;28;20241;-66
2023/07/17 04:51:15;;;;;;;6.27;3.40;;;;;;;16.95;87.83;98981.88;4971402;28;20304;-66
2023/07/17 04:53:42;;;;;;;8.83;3.80;;;;;;;17.04;86.27;98981.78;4961494;28;22457;-66
2023/07/17 04:56:08;;;;;;;10.40;4.00;;;;;;;17.05;86.20;98986.88;4957364;28;20233;-66
2023/07/17 04:58:35;;;;;;;6.03;3.87;;;;;;;17.15;83.64;98983.94;4955457;28;20240;-66
2023/07/17 05:01:04;;;;;;;8.30;3.90;;;;;;;17.32;82.03;98989.00;4959196;28;20242;-66
2023/07/17 05:03:31;;;;;;;14.17;4.00;;;;;;;17.55;79.44;98984.41;4974368;28;20641;-66
2023/07/17 05:06:00;;;;;;;8.63;3.70;;;;;;;17.59;79.86;98999.88;4973731;28;20240;-66
2023/07/17 05:08:27;;;;;;;6.00;3.67;;;;;;;17.62;78.15;98995.00;4969438;28;20565;-66
2023/07/17 05:10:55;;;;;;;8.07;3.70;;;;;;;17.65;80.01;99001.75;4959424;28;20294;-66
2023/07/17 05:13:23;;;;;;;8.87;4.10;;;;;;;17.75;76.71;99002.28;4972019;28;20229;-66
2023/07/17 05:15:52;;;;;;;10.20;4.10;;;;;;;17.85;75.81;98999.31;4972422;28;20256;-66
2023/07/17 05:18:19;;;;;;;9.70;4.53;;;;;;;18.03;73.27;98998.06;4972189;28;20232;-66
2023/07/17 05:20:48;;;;;;;10.57;4.30;;;;;;;18.10;74.13;99004.22;4957399;28;20252;-66
2023/07/17 05:23:16;;;;;;;9.60;4.10;;;;;;;18.19;74.33;99003.09;4974167;28;20256;-66
2023/07/17 05:25:52;;;;;;;7.97;4.20;;;;;;;18.29;72.44;99008.03;4968529;28;20711;-66
2023/07/17 05:28:20;;;;;;;7.90;4.13;;;;;;;18.42;71.92;99007.31;4975653;28;20648;-66
2023/07/17 05:30:46;;;;;;;8.73;3.93;;;;;;;18.56;69.92;99008.22;4969539;28;20695;-66
2023/07/17 05:33:13;;;;;;;7.70;3.93;;;;;;;18.60;70.90;99012.13;4955982;28;20489;-66
2023/07/17 05:35:40;;;;;;;7.43;4.20;;;;;;;18.81;68.99;99015.69;4950631;28;20238;-66
2023/07/17 05:38:07;;;;;;;11.13;4.17;;;;;;;19.06;68.58;99017.91;4972232;28;20275;-66
2023/07/17 05:40:37;;;;;;;9.10;4.67;;;;;;;19.39;66.93;99014.53;4955254;28;20629;-66
2023/07/17 05:43:04;;;;;;;9.17;4.30;;;;;;;19.73;66.16;99026.84;4972887;28;20230;-66
2023/07/17 05:45:32;;;;;;;8.03;4.73;;;;;;;20.07;65.05;99034.91;4968984;28;20258;-66
2023/07/17 05:48:02;;;;;;;9.97;4.17;;;;;;;20.28;62.15;99035.69;4973015;28;20319;-66
2023/07/17 05:50:29;;;;;;;11.50;4.20;;;;;;;20.52;60.57;99031.63;4973233;28;20620;-66
2023/07/17 05:53:03;;;;;;;5.83;4.13;;;;;;;20.78;63.23;99036.09;4958385;28;20257;-67
2023/07/17 05:55:30;;;;;;;8.13;3.97;;;;;;;20.91;61.42;99042.38;4955789;28;20322;-67
2023/07/17 05:58:03;;;;;;;11.50;4.23;;;;;;;21.01;58.30;99044.59;4964482;28;20308;-66
2023/07/17 06:00:30;;;;;;;7.93;3.70;;;;;;;21.02;56.87;99047.06;4968100;28;20654;-66
2023/07/17 06:03:02;;;;;;;5.90;4.10;;;;;;;21.32;56.65;99053.69;4966511;28;20324;-66
2023/07/17 06:05:28;;;;;;;8.90;4.30;;;;;;;21.56;53.56;99051.34;4956454;28;20333;-67
2023/07/17 06:07:55;;;;;;;6.70;4.00;;;;;;;21.63;55.34;99046.81;4956678;28;20597;-67
2023/07/17 06:10:22;;;;;;;7.87;4.10;;;;;;;21.84;54.91;99053.66;4958383;28;20247;-67
2023/07/17 06:12:48;;;;;;;5.90;3.87;;;;;;;22.06;54.01;99054.09;4953926;28;20236;-67
2023/07/17 06:15:16;;;;;;;8.47;4.13;;;;;;;22.34;54.06;99063.50;4957332;28;20278;-66
2023/07/17 06:17:43;;;;;;;6.37;4.30;;;;;;;22.58;53.71;99060.25;4953631;28;20248;-66
2023/07/17 06:20:10;;;;;;;6.30;3.80;;;;;;;22.70;52.73;99058.50;4958583;28;20242;-66
2023/07/17 06:22:36;;;;;;;6.20;3.43;;;;;;;22.44;53.00;99063.03;4955331;28;20325;-66
2023/07/17 06:25:04;;;;;;;9.57;3.27;;;;;;;22.37;53.09;99057.75;4957874;28;20304;-66
2023/07/17 06:27:30;;;;;;;9.33;3.63;;;;;;;22.40;55.38;99069.78;4955578;28;20247;-66
2023/07/17 06:29:57;;;;;;;6.20;3.57;;;;;;;22.30;57.78;99064.97;4956655;28;20248;-66
2023/07/17 06:32:25;;;;;;;6.67;3.30;;;;;;;22.14;58.34;99071.66;4956307;28;20291;-66
2023/07/17 06:34:51;;;;;;;7.30;3.20;;;;;;;22.17;59.12;99073.88;4956216;28;20235;-66
2023/07/17 06:37:18;;;;;;;7.27;3.50;;;;;;;22.00;60.06;99070.09;4957327;28;20277;-66
2023/07/17 06:39:44;;;;;;;6.17;3.43;;;;;;;21.84;62.16;99072.25;4955682;28;20246;-66
2023/07/17 06:42:11;;;;;;;9.33;3.20;;;;;;;21.81;62.74;99065.50;4955692;28;20625;-66
2023/07/17 06:44:38;;;;;;;7.13;3.80;;;;;;;21.85;62.47;99068.56;4952112;28;20229;-66
2023/07/17 06:47:06;;;;;;;8.40;3.87;;;;;;;21.71;61.08;99072.31;4956932;28;20236;-66
2023/07/17 06:49:34;;;;;;;7.23;3.43;;;;;;;21.68;61.69;99082.34;4952666;28;20235;-66
2023/07/17 06:52:00;;;;;;;8.70;3.70;;;;;;;21.63;62.58;99068.88;4957359;28;20231;-66
2023/07/17 06:54:27;;;;;;;7.70;3.87;;;;;;;21.73;62.70;99075.56;4953832;28;20232;-66
2023/07/17 06:56:53;;;;;;;8.20;3.33;;;;;;;21.82;62.66;99084.94;4951787;28;20243;-66
2023/07/17 06:59:20;;;;;;;8.03;3.70;;;;;;;21.75;61.37;99084.94;4958214;28;20290;-66
2023/07/17 07:01:46;;;;;;;5.63;2.97;;;;;;;21.66;61.60;99083.59;4952922;28;20250;-67
2023/07/17 07:04:13;;;;;;;8.20;3.20;;;;;;;21.67;65.19;99094.00;4954711;28;20289;-67
2023/07/17 07:06:41;;;;;;;6.80;3.17;;;;;;;21.75;61.66;99092.13;4952636;28;20231;-67
2023/07/17 07:09:07;;;;;;;6.37;2.93;;;;;;;21.64;61.42;99094.41;4954691;28;20229;-67
2023/07/17 07:11:34;;;;;;;5.30;3.27;;;;;;;21.75;61.96;99100.09;4949889;28;20230;-67
2023/07/17 07:14:00;;;;;;;8.73;3.90;;;;;;;21.58;62.17;99105.84;4960002;28;21688;-67
2023/07/17 07:16:27;;;;;;;8.10;3.97;;;;;;;21.61;59.21;99100.13;4951907;28;20776;-67
2023/07/17 07:18:54;;;;;;;7.33;3.87;;;;;;;21.87;58.97;99101.06;4953926;28;20236;-67
2023/07/17 07:21:20;;;;;;;6.43;3.80;;;;;;;21.72;58.17;99105.84;4957270;28;20240;-67
2023/07/17 07:23:48;;;;;;;5.40;3.70;;;;;;;21.74;57.15;99101.91;4955156;28;20239;-67
2023/07/17 07:26:15;;;;;;;7.87;3.40;;;;;;;21.85;58.59;99102.28;4953793;28;20243;-66
2023/07/17 07:28:41;;;;;;;7.43;3.80;;;;;;;21.99;57.68;99113.66;4954257;28;20295;-66
2023/07/17 07:31:08;;;;;;;6.23;3.90;;;;;;;22.03;56.79;99118.31;4956316;28;20235;-66
2023/07/17 07:33:36;;;;;;;7.63;4.10;;;;;;;21.93;57.07;99120.63;4955590;28;20239;-66
2023/07/17 07:36:03;;;;;;;9.63;3.90;;;;;;;21.99;56.85;99116.31;4960052;28;20224;-66
2023/07/17 07:38:29;;;;;;;7.00;3.93;;;;;;;22.08;57.53;99113.19;4951536;28;20594;-66
2023/07/17 07:40:57;;;;;;;5.00;3.63;;;;;;;22.24;57.81;99121.69;4957151;28;20349;-66
2023/07/17 07:43:24;;;;;;;9.80;4.03;;;;;;;22.39;58.44;99122.19;4955488;28;20235;-66
2023/07/17 07:45:50;;;;;;;11.00;4.00;;;;;;;22.54;56.66;99134.38;4953131;28;20286;-67
2023/07/17 07:48:17;;;;;;;6.53;3.93;;;;;;;22.67;56.36;99133.44;4948276;28;20282;-67
2023/07/17 07:50:43;;;;;;;9.33;4.17;;;;;;;22.62;55.80;99141.28;4955031;28;20247;-67
2023/07/17 07:53:10;;;;;;;7.93;3.90;;;;;;;23.05;55.03;99143.16;4960543;28;20240;-67
2023/07/17 07:55:37;;;;;;;10.68;4.00;;;;;;;23.19;55.76;99146.47;4971116;28;20814;-67
2023/07/17 07:58:04;;;;;;;6.17;3.60;;;;;;;23.43;54.33;99155.44;4974459;28;20221;-67
2023/07/17 08:00:31;;;;;;;7.40;3.80;;;;;;;23.33;54.03;99149.03;4953240;28;20241;-67
2023/07/17 08:03:02;;;;;;;7.23;3.83;;;;;;;23.08;56.92;99148.03;4960102;28;20237;-67
2023/07/17 08:05:28;;;;;;;8.43;4.17;;;;;;;22.99;56.01;99150.16;4958223;28;20237;-67
2023/07/17 08:07:55;;;;;;;12.17;3.83;;;;;;;23.07;56.91;99150.91;4959941;28;20233;-67
2023/07/17 08:10:22;;;;;;;9.87;3.90;;;;;;;23.27;55.59;99150.75;4960861;28;20227;-67
2023/07/17 08:12:48;;;;;;;8.37;4.03;;;;;;;23.55;54.79;99144.06;4958662;28;20274;-67
2023/07/17 08:15:16;;;;;;;8.03;3.87;;;;;;;23.65;55.95;99156.88;4962923;28;20622;-67
2023/07/17 08:17:43;;;;;;;9.67;4.10;;;;;;;23.76;53.48;99142.78;4957290;28;20241;-67
2023/07/17 08:20:10;;;;;;;6.70;3.53;;;;;;;24.24;52.48;99153.66;4960230;28;20230;-67
2023/07/17 08:22:36;;;;;;;9.73;3.77;;;;;;;24.30;53.94;99155.41;4955322;28;20277;-67
2023/07/17 08:25:03;;;;;;;7.87;4.20;;;;;;;24.69;51.86;99163.00;4959978;28;20333;-67
2023/07/17 08:27:30;;;;;;;9.87;4.23;;;;;;;24.37;51.55;99163.31;4956153;28;20462;-67
2023/07/17 08:29:56;;;;;;;9.77;3.90;;;;;;;24.08;50.20;99171.91;4959424;28;20253;-67
2023/07/17 08:32:24;;;;;;;10.40;3.80;;;;;;;23.78;53.00;99158.53;4957026;28;20241;-67
2023/07/17 08:34:51;;;;;;;11.53;4.00;;;;;;;23.86;53.25;99158.25;4958034;28;20226;-66
2023/07/17 08:37:17;;;;;;;8.33;3.70;;;;;;;24.18;51.70;99166.84;4972114;28;20237;-67
2023/07/17 08:39:44;;;;;;;6.13;3.43;;;;;;;24.13;50.30;99171.25;4956028;28;20250;-67
2023/07/17 08:42:12;;;;;;;6.23;3.53;;;;;;;24.06;49.78;99160.66;4959838;28;20746;-67
2023/07/17 08:44:39;;;;;;;8.80;3.30;;;;;;;24.41;51.11;99157.28;4947786;28;20238;-67
2023/07/17 08:47:08;;;;;;;7.90;3.47;;;;;;;24.18;51.84;99152.72;4958179;28;20321;-67
2023/07/17 08:49:38;;;;;;;7.50;3.37;;;;;;;23.87;52.38;99146.53;4956918;28;20239;-67
2023/07/17 08:52:07;;;;;;;10.40;3.60;;;;;;;23.95;51.96;99145.41;4963762;28;20237;-67
2023/07/17 08:54:34;;;;;;;5.73;3.80;;;;;;;23.94;52.89;99151.75;4956147;28;20232;-67
2023/07/17 08:57:04;;;;;;;7.27;3.87;;;;;;;24.01;52.65;99148.00;4959018;28;20237;-67
2023/07/17 08:59:31;;;;;;;7.80;3.73;;;;;;;24.14;53.00;99148.88;4955039;28;20234;-67
2023/07/17 09:01:57;;;;;;;8.73;4.47;;;;;;;24.20;52.28;99145.31;4956174;28;20327;-67
2023/07/17 09:04:25;;;;;;;6.97;3.50;;;;;;;24.70;50.33;99145.94;4955524;28;20254;-67
2023/07/17 09:06:53;;;;;;;9.40;3.83;;;;;;;24.69;49.57;99144.31;4956446;28;20243;-67
2023/07/17 09:09:20;;;;;;;8.33;3.43;;;;;;;24.82;47.76;99146.00;4956029;28;20227;-67
2023/07/17 09:11:46;;;;;;;6.83;3.13;;;;;;;24.41;46.33;99140.44;4953394;28;20696;-67
2023/07/17 09:14:13;;;;;;;11.17;3.63;;;;;;;24.48;46.44;99149.16;4957999;28;20751;-67
2023/07/17 09:16:40;;;;;;;7.67;3.50;;;;;;;24.27;44.30;99155.84;4954785;28;20252;-67
2023/07/17 09:19:07;;;;;;;9.00;4.00;;;;;;;24.35;44.31;99144.06;4955851;28;20699;-67
2023/07/17 09:21:33;;;;;;;6.67;3.60;;;;;;;24.43;45.58;99149.03;4956588;28;20241;-67
2023/07/17 09:24:01;;;;;;;8.73;3.73;;;;;;;24.50;45.77;99151.63;4972139;28;20230;-67
2023/07/17 09:26:28;;;;;;;6.40;3.37;;;;;;;24.51;47.00;99142.56;4956930;28;20295;-67
2023/07/17 09:28:56;;;;;;;9.60;3.67;;;;;;;24.77;45.39;99149.34;4957690;28;20726;-67
2023/07/17 09:31:27;;;;;;;6.93;3.77;;;;;;;24.84;43.40;99144.72;4956811;28;20241;-67
2023/07/17 09:33:54;;;;;;;8.27;3.73;;;;;;;24.74;45.51;99139.13;4975066;28;20248;-67
2023/07/17 09:36:21;;;;;;;9.10;3.47;;;;;;;24.96;43.98;99128.69;4960215;28;20408;-67
2023/07/17 09:38:51;;;;;;;6.70;3.77;;;;;;;24.88;45.07;99129.06;4953295;28;20225;-67
2023/07/17 09:41:23;;;;;;;9.93;3.97;;;;;;;24.54;46.65;99126.91;4959918;28;20237;-67
2023/07/17 09:43:54;;;;;;;7.63;3.33;;;;;;;24.81;45.97;99133.69;4954577;28;20250;-67
2023/07/17 09:46:21;;;;;;;8.13;3.97;;;;;;;24.78;45.92;99132.28;4955393;28;20242;-67
2023/07/17 09:48:50;;;;;;;7.70;4.10;;;;;;;24.41;46.54;99129.78;4952572;28;20598;-67
2023/07/17 09:51:18;;;;;;;5.90;3.40;;;;;;;24.34;46.82;99126.44;4958797;28;20248;-67
2023/07/17 09:53:46;;;;;;;8.37;4.23;;;;;;;24.43;45.89;99130.38;4954745;28;20231;-67
2023/07/17 09:56:15;;;;;;;12.40;3.97;;;;;;;24.25;45.93;99129.44;4957507;28;20245;-67
2023/07/17 09:58:45;;;;;;;6.93;3.90;;;;;;;24.07;47.87;99132.94;4956747;28;20232;-67
2023/07/17 10:01:15;;;;;;;8.70;4.07;;;;;;;24.01;48.21;99129.34;4959165;28;20245;-67
2023/07/17 10:03:47;;;;;;;11.63;4.43;;;;;;;24.06;46.03;99127.84;4955651;28;20231;-67
2023/07/17 10:06:16;;;;;;;10.37;4.33;;;;;;;23.53;47.25;99127.47;4957436;28;20230;-67
2023/07/17 10:08:46;;;;;;;8.27;4.17;;;;;;;24.19;48.47;99130.34;4954698;28;20320;-67
2023/07/17 10:11:14;;;;;;;8.00;4.07;;;;;;;24.56;46.95;99127.47;4957871;28;20234;-67
2023/07/17 10:13:41;;;;;;;8.53;4.07;;;;;;;24.97;45.01;99129.50;4952870;28;20241;-67
2023/07/17 10:16:10;;;;;;;5.97;3.57;;;;;;;25.11;45.51;99120.22;4958767;28;20241;-67
2023/07/17 10:18:47;;;;;;;7.77;3.50;;;;;;;25.09;44.67;99122.31;4955021;28;20220;-67
2023/07/17 10:21:14;;;;;;;7.50;3.43;;;;;;;25.18;44.98;99128.91;4957104;28;20598;-67
2023/07/17 10:23:43;;;;;;;7.37;3.80;;;;;;;25.00;44.85;99126.38;4954135;28;20245;-67
2023/07/17 10:26:11;;;;;;;9.40;3.80;;;;;;;25.04;45.33;99122.19;4956168;28;20228;-67
2023/07/17 10:28:38;;;;;;;8.70;3.63;;;;;;;25.12;46.12;99121.84;4955747;28;20233;-67
2023/07/17 10:31:11;;;;;;;9.93;4.20;;;;;;;24.91;45.21;99118.72;4956879;28;20291;-67
2023/07/17 10:33:39;;;;;;;9.67;4.27;;;;;;;24.81;45.65;99110.47;4955353;28;20236;-67
2023/07/17 10:36:06;;;;;;;6.73;3.57;;;;;;;25.54;46.55;99109.31;4956514;28;20247;-67
2023/07/17 10:38:37;;;;;;;6.97;3.70;;;;;;;25.72;44.27;99114.47;4957058;28;20245;-67
2023/07/17 10:41:11;;;;;;;9.13;3.93;;;;;;;25.41;43.86;99118.41;4956159;28;20243;-67
2023/07/17 10:43:38;;;;;;;6.83;3.70;;;;;;;25.99;40.76;99118.44;4957250;28;20230;-67
2023/07/17 10:46:10;;;;;;;6.63;3.73;;;;;;;25.88;40.06;99109.41;4955308;28;20230;-67
2023/07/17 10:48:37;;;;;;;7.37;4.10;;;;;;;25.38;41.29;99113.53;4954499;28;20287;-67
2023/07/17 10:51:04;;;;;;;7.80;3.43;;;;;;;25.11;42.64;99114.88;4956459;28;20247;-67
2023/07/17 10:53:31;;;;;;;6.93;3.90;;;;;;;25.14;41.35;99110.91;4953590;28;20238;-67
2023/07/17 10:55:58;;;;;;;5.67;3.43;;;;;;;25.53;44.26;99118.38;4957362;28;20230;-67
2023/07/17 10:58:25;;;;;;;9.53;4.30;;;;;;;25.30;42.28;99104.84;4955607;28;20236;-67
2023/07/17 11:00:52;;;;;;;6.27;3.27;;;;;;;25.35;41.94;99104.94;4955131;28;20236;-67
2023/07/17 11:03:22;;;;;;;6.77;3.70;;;;;;;25.50;39.47;99098.31;4957732;28;20253;-67
2023/07/17 11:05:50;;;;;;;9.17;3.90;;;;;;;25.55;42.57;99108.28;4934650;28;20229;-67
2023/07/17 11:08:16;;;;;;;7.90;3.73;;;;;;;25.40;42.61;99106.09;4937741;29;20243;-67
2023/07/17 11:10:44;;;;;;;10.93;3.80;;;;;;;25.44;41.35;99104.56;4931516;29;22380;-67
2023/07/17 11:13:11;;;;;;;7.73;3.63;;;;;;;25.63;42.46;99097.19;4934341;28;20764;-67
2023/07/17 11:15:39;;;;;;;5.07;3.50;;;;;;;25.55;42.69;99092.22;4951376;28;20544;-67
2023/07/17 11:18:07;;;;;;;7.32;4.28;;;;;;;25.39;42.12;99102.63;4955749;28;20502;-67
2023/07/17 11:20:35;;;;;;;7.13;3.90;;;;;;;25.43;41.67;99095.75;4935623;28;20578;-67
2023/07/17 11:23:03;;;;;;;7.17;4.37;;;;;;;24.66;42.66;99094.91;4956321;28;20238;-67
2023/07/17 11:25:30;;;;;;;8.53;3.47;;;;;;;24.99;42.95;99095.38;4953416;28;20258;-67
2023/07/17 11:28:02;;;;;;;7.70;3.83;;;;;;;25.03;42.57;99091.19;4946085;28;20234;-67
2023/07/17 11:30:30;;;;;;;8.37;4.13;;;;;;;25.13;42.38;99088.72;4951983;28;20251;-67
2023/07/17 11:33:05;;;;;;;8.07;3.70;;;;;;;25.34;39.56;99089.94;4961650;28;20254;-67
2023/07/17 11:35:45;;;;;;;6.80;3.70;;;;;;;25.33;41.91;99088.31;4955616;28;20234;-67